createdAt,value
2022-11-14T00:00:49.468Z,37.40
2022-11-14T00:01:49.478Z,35.40
2022-11-14T00:02:49.538Z,37.00
2022-11-14T00:03:49.451Z,37.60
2022-11-14T00:04:49.432Z,36.30
2022-11-14T00:05:49.428Z,36.40
2022-11-14T00:06:49.465Z,34.20
2022-11-14T00:07:49.406Z,36.60
2022-11-14T00:08:49.408Z,36.70
2022-11-14T00:09:49.386Z,35.70
2022-11-14T00:10:49.391Z,34.00
2022-11-14T00:11:49.367Z,33.20
2022-11-14T00:12:49.350Z,36.30
2022-11-14T00:13:49.359Z,36.60
2022-11-14T00:14:49.331Z,33.00
2022-11-14T00:15:49.320Z,34.70
2022-11-14T00:16:49.308Z,37.50
2022-11-14T00:17:49.300Z,36.00
2022-11-14T00:18:49.300Z,34.10
2022-11-14T00:19:49.289Z,33.60
2022-11-14T00:20:49.268Z,35.80
2022-11-14T00:21:49.260Z,35.50
2022-11-14T00:22:49.241Z,33.80
2022-11-14T00:23:49.260Z,32.90
2022-11-14T00:24:49.222Z,32.90
2022-11-14T00:25:49.226Z,35.80
2022-11-14T00:26:49.202Z,34.70
2022-11-14T00:27:49.201Z,32.70
2022-11-14T00:28:49.202Z,31.20
2022-11-14T00:29:49.173Z,35.90
2022-11-14T00:30:49.163Z,35.10
2022-11-14T00:31:49.154Z,32.50
2022-11-14T00:32:49.152Z,31.90
2022-11-14T00:33:49.144Z,31.10
2022-11-14T00:34:49.123Z,30.00
2022-11-14T00:35:49.104Z,34.40
2022-11-14T00:36:49.106Z,32.60
2022-11-14T00:37:49.085Z,32.60
2022-11-14T00:38:49.104Z,31.20
2022-11-14T00:39:49.073Z,32.90
2022-11-14T00:40:49.070Z,33.00
2022-11-14T00:41:49.052Z,30.70
2022-11-14T00:42:49.045Z,31.30
2022-11-14T00:43:49.046Z,34.30
2022-11-14T00:44:49.027Z,35.00
2022-11-14T00:45:49.005Z,31.70
2022-11-14T00:46:49.003Z,32.00
2022-11-14T00:47:49.001Z,33.50
2022-11-14T00:48:48.996Z,32.70
2022-11-14T00:49:48.969Z,31.80
2022-11-14T00:50:48.969Z,32.10
2022-11-14T00:51:48.948Z,30.70
2022-11-14T00:52:48.964Z,31.90
2022-11-14T00:53:48.919Z,31.80
2022-11-14T00:54:48.930Z,29.70
2022-11-14T00:55:48.908Z,29.50
2022-11-14T00:56:48.917Z,33.20
2022-11-14T00:57:48.899Z,32.30
2022-11-14T00:58:48.879Z,28.90
2022-11-14T00:59:48.870Z,31.40
2022-11-14T01:00:48.914Z,32.70
2022-11-14T01:01:48.840Z,31.80
2022-11-14T01:02:48.850Z,30.00
2022-11-14T01:03:48.821Z,31.40
2022-11-14T01:04:48.821Z,31.20
2022-11-14T01:05:48.814Z,31.50
2022-11-14T01:06:48.792Z,29.30
2022-11-14T01:07:48.791Z,30.60
2022-11-14T01:08:48.799Z,31.80
2022-11-14T01:09:48.763Z,29.70
2022-11-14T01:10:48.752Z,30.00
2022-11-14T01:11:48.743Z,32.90
2022-11-14T01:12:48.753Z,29.00
2022-11-14T01:13:48.720Z,29.40
2022-11-14T01:14:48.732Z,28.10
2022-11-14T01:15:48.693Z,29.30
2022-11-14T01:16:48.693Z,29.70
2022-11-14T01:17:48.693Z,29.30
2022-11-14T01:18:48.673Z,28.30
2022-11-14T01:19:48.654Z,29.40
2022-11-14T01:20:48.654Z,30.60
2022-11-14T01:21:48.636Z,30.30
2022-11-14T01:22:48.645Z,27.30
2022-11-14T01:23:48.614Z,29.50
2022-11-14T01:24:48.614Z,28.90
2022-11-14T01:25:48.595Z,28.00
2022-11-14T01:26:48.591Z,29.30
2022-11-14T01:27:48.593Z,30.30
2022-11-14T01:28:48.574Z,30.00
2022-11-14T01:29:48.557Z,28.30
2022-11-14T01:30:48.554Z,28.80
2022-11-14T01:31:48.537Z,29.00
2022-11-14T01:32:48.554Z,29.80
2022-11-14T01:33:48.514Z,28.20
2022-11-14T01:34:48.508Z,28.80
2022-11-14T01:35:48.498Z,30.40
2022-11-14T01:36:48.492Z,29.50
2022-11-14T01:37:48.488Z,29.30
2022-11-14T01:38:48.466Z,30.60
2022-11-14T01:39:48.448Z,29.70
2022-11-14T01:40:48.449Z,28.20
2022-11-14T01:41:48.430Z,29.70
2022-11-14T01:42:48.447Z,29.50
2022-11-14T01:43:48.419Z,30.00
2022-11-14T01:44:48.408Z,28.50
2022-11-14T01:45:48.390Z,30.10
2022-11-14T01:46:48.380Z,30.40
2022-11-14T01:47:48.436Z,30.20
2022-11-14T01:48:48.362Z,30.00
2022-11-14T01:49:48.352Z,30.10
2022-11-14T01:50:48.341Z,31.70
2022-11-14T01:51:48.342Z,31.20
2022-11-14T01:52:48.342Z,30.70
2022-11-14T01:53:48.302Z,29.40
2022-11-14T01:54:48.321Z,30.00
2022-11-14T01:55:48.282Z,31.00
2022-11-14T01:56:48.284Z,29.20
2022-11-14T01:57:48.283Z,30.60
2022-11-14T01:58:48.261Z,31.00
2022-11-14T01:59:48.243Z,31.30
2022-11-14T02:00:48.253Z,29.30
2022-11-14T02:01:48.287Z,30.70
2022-11-14T02:02:48.243Z,31.60
2022-11-14T02:03:48.208Z,31.20
2022-11-14T02:04:48.205Z,30.00
2022-11-14T02:05:48.184Z,30.40
2022-11-14T02:06:48.214Z,30.80
2022-11-14T02:07:48.183Z,29.50
2022-11-14T02:08:48.156Z,31.40
2022-11-14T02:09:48.146Z,30.30
2022-11-14T02:10:48.146Z,29.70
2022-11-14T02:11:48.123Z,31.40
2022-11-14T02:12:48.136Z,32.00
2022-11-14T02:13:48.097Z,33.20
2022-11-14T02:14:48.096Z,30.80
2022-11-14T02:15:48.085Z,31.90
2022-11-14T02:17:07.225Z,30.70
2022-11-14T02:17:49.078Z,30.70
2022-11-14T02:18:48.056Z,33.00
2022-11-14T02:19:48.038Z,32.70
2022-11-14T02:20:48.045Z,31.30
2022-11-14T02:21:48.018Z,31.80
2022-11-14T02:22:48.041Z,33.20
2022-11-14T02:23:47.997Z,32.00
2022-11-14T02:24:48.000Z,31.00
2022-11-14T02:25:48.020Z,33.00
2022-11-14T02:26:47.970Z,33.30
2022-11-14T02:27:47.979Z,32.00
2022-11-14T02:28:47.955Z,33.10
2022-11-14T02:29:47.939Z,34.40
2022-11-14T02:30:47.943Z,33.60
2022-11-14T02:31:47.918Z,32.20
2022-11-14T02:33:09.920Z,32.70
2022-11-14T02:33:48.891Z,34.10
2022-11-14T02:34:47.890Z,33.40
2022-11-14T02:35:47.878Z,32.30
2022-11-14T02:36:47.873Z,31.70
2022-11-14T02:37:47.884Z,33.80
2022-11-14T02:38:47.849Z,34.50
2022-11-14T02:39:47.833Z,32.20
2022-11-14T02:40:47.830Z,33.80
2022-11-14T02:41:47.813Z,33.20
2022-11-14T02:42:47.830Z,33.70
2022-11-14T02:43:47.793Z,32.00
2022-11-14T02:44:47.793Z,36.30
2022-11-14T02:45:47.775Z,33.40
2022-11-14T02:46:47.772Z,33.40
2022-11-14T02:47:47.765Z,33.10
2022-11-14T02:48:47.745Z,34.70
2022-11-14T02:49:47.735Z,33.70
2022-11-14T02:50:47.725Z,33.10
2022-11-14T02:51:47.714Z,35.20
2022-11-14T02:52:47.726Z,33.80
2022-11-14T02:53:47.687Z,33.50
2022-11-14T02:54:53.188Z,32.20
2022-11-14T02:55:48.686Z,34.10
2022-11-14T02:56:47.666Z,33.70
2022-11-14T02:57:47.666Z,33.40
2022-11-14T02:58:47.647Z,33.60
2022-11-14T02:59:47.626Z,33.90
2022-11-14T03:01:13.727Z,33.00
2022-11-14T03:01:48.623Z,33.90
2022-11-14T03:02:47.609Z,32.90
2022-11-14T03:03:47.607Z,34.80
2022-11-14T03:04:47.595Z,35.00
2022-11-14T03:05:47.570Z,33.90
2022-11-14T03:06:47.595Z,34.10
2022-11-14T03:07:47.549Z,34.70
2022-11-14T03:08:47.561Z,34.30
2022-11-14T03:09:47.531Z,32.50
2022-11-14T03:10:47.527Z,33.10
2022-11-14T03:11:47.509Z,34.50
2022-11-14T03:12:47.510Z,34.00
2022-11-14T03:13:47.499Z,32.80
2022-11-14T03:14:47.489Z,34.00
2022-11-14T03:15:47.471Z,33.90
2022-11-14T03:16:47.461Z,33.20
2022-11-14T03:17:47.450Z,32.30
2022-11-14T03:18:47.458Z,34.20
2022-11-14T03:19:47.438Z,34.20
2022-11-14T03:20:47.431Z,33.30
2022-11-14T03:21:47.410Z,31.60
2022-11-14T03:22:47.402Z,35.50
2022-11-14T03:23:47.412Z,36.80
2022-11-14T03:24:47.381Z,34.50
2022-11-14T03:25:47.363Z,35.60
2022-11-14T03:26:47.361Z,37.20
2022-11-14T03:27:47.354Z,37.90
2022-11-14T03:28:47.361Z,33.40
2022-11-14T03:29:47.323Z,38.30
2022-11-14T03:30:47.322Z,38.80
2022-11-14T03:31:47.333Z,37.60
2022-11-14T03:32:47.303Z,35.40
2022-11-14T03:33:47.306Z,38.30
2022-11-14T03:34:47.283Z,36.80
2022-11-14T03:35:47.265Z,36.10
2022-11-14T03:36:47.264Z,38.80
2022-11-14T03:37:47.244Z,40.30
2022-11-14T03:38:47.263Z,38.80
2022-11-14T03:39:47.225Z,38.50
2022-11-14T03:40:47.230Z,37.80
2022-11-14T03:41:47.213Z,41.40
2022-11-14T03:42:47.207Z,38.20
2022-11-14T03:43:47.207Z,37.00
2022-11-14T03:44:47.180Z,37.70
2022-11-14T03:45:47.167Z,38.40
2022-11-14T03:46:47.168Z,37.50
2022-11-14T03:47:47.146Z,38.30
2022-11-14T03:48:47.158Z,39.20
2022-11-14T03:49:47.119Z,39.20
2022-11-14T03:50:47.120Z,39.50
2022-11-14T03:51:47.124Z,39.40
2022-11-14T03:52:47.106Z,40.60
2022-11-14T03:53:47.099Z,41.40
2022-11-14T03:54:47.080Z,41.00
2022-11-14T03:55:47.068Z,38.80
2022-11-14T03:56:47.061Z,40.60
2022-11-14T03:57:47.041Z,41.90
2022-11-14T03:58:47.071Z,42.10
2022-11-14T03:59:47.033Z,42.50
2022-11-14T04:00:47.079Z,41.70
2022-11-14T04:01:47.002Z,42.30
2022-11-14T04:02:46.998Z,40.80
2022-11-14T04:03:47.005Z,43.90
2022-11-14T04:04:46.983Z,44.90
2022-11-14T04:05:46.963Z,43.20
2022-11-14T04:06:47.052Z,43.90
2022-11-14T04:07:46.933Z,42.60
2022-11-14T04:08:46.952Z,43.20
2022-11-14T04:09:46.915Z,43.30
2022-11-14T04:10:46.922Z,40.80
2022-11-14T04:11:46.901Z,44.90
2022-11-14T04:12:46.893Z,43.60
2022-11-14T04:13:46.900Z,43.10
2022-11-14T04:14:46.873Z,43.30
2022-11-14T04:15:46.859Z,45.00
2022-11-14T04:16:46.854Z,44.10
2022-11-14T04:17:46.847Z,50.80
2022-11-14T04:18:46.848Z,49.40
2022-11-14T04:19:46.815Z,48.80
2022-11-14T04:20:46.813Z,45.90
2022-11-14T04:21:46.796Z,48.20
2022-11-14T04:22:46.795Z,47.40
2022-11-14T04:23:46.800Z,57.10
2022-11-14T04:24:46.771Z,53.30
2022-11-14T04:25:46.759Z,56.40
2022-11-14T04:26:46.755Z,55.40
2022-11-14T04:27:46.734Z,57.60
2022-11-14T04:28:46.747Z,55.80
2022-11-14T04:29:46.726Z,59.40
2022-11-14T04:30:46.709Z,58.30
2022-11-14T04:31:46.703Z,60.20
2022-11-14T04:32:46.696Z,60.90
2022-11-14T04:33:46.689Z,61.00
2022-11-14T04:34:46.670Z,57.50
2022-11-14T04:35:46.658Z,58.40
2022-11-14T04:36:46.650Z,59.40
2022-11-14T04:37:46.629Z,59.20
2022-11-14T04:38:46.647Z,59.20
2022-11-14T04:39:46.622Z,63.30
2022-11-14T04:40:46.608Z,62.10
2022-11-14T04:41:46.589Z,68.90
2022-11-14T04:42:46.590Z,66.50
2022-11-14T04:43:50.613Z,61.80
2022-11-14T04:44:46.590Z,65.10
2022-11-14T04:45:46.558Z,64.60
2022-11-14T04:46:46.549Z,67.50
2022-11-14T04:47:46.526Z,65.60
2022-11-14T04:48:46.543Z,68.50
2022-11-14T04:49:46.511Z,64.70
2022-11-14T04:50:46.509Z,68.90
2022-11-14T04:51:46.493Z,72.40
2022-11-14T04:52:46.480Z,73.10
2022-11-14T04:53:46.493Z,69.30
2022-11-14T04:54:46.469Z,66.60
2022-11-14T04:55:46.451Z,68.30
2022-11-14T04:56:46.454Z,68.40
2022-11-14T04:57:46.433Z,67.00
2022-11-14T04:58:46.452Z,69.10
2022-11-14T04:59:46.412Z,79.10
2022-11-14T05:00:46.404Z,70.50
2022-11-14T05:01:46.445Z,62.60
2022-11-14T05:02:46.376Z,60.90
2022-11-14T05:03:46.392Z,60.80
2022-11-14T05:04:46.355Z,57.50
2022-11-14T05:05:46.352Z,60.90
2022-11-14T05:06:46.457Z,62.10
2022-11-14T05:07:46.334Z,62.80
2022-11-14T05:08:46.338Z,58.50
2022-11-14T05:09:46.306Z,58.60
2022-11-14T05:10:46.296Z,57.20
2022-11-14T05:11:46.294Z,58.70
2022-11-14T05:12:46.278Z,56.80
2022-11-14T05:13:46.287Z,57.00
2022-11-14T05:14:46.256Z,51.20
2022-11-14T05:15:46.249Z,46.00
2022-11-14T05:16:46.239Z,51.90
2022-11-14T05:17:46.227Z,54.00
2022-11-14T05:18:47.234Z,48.40
2022-11-14T05:19:46.209Z,47.30
2022-11-14T05:20:46.188Z,47.10
2022-11-14T05:21:46.199Z,47.00
2022-11-14T05:22:46.176Z,47.30
2022-11-14T05:23:46.190Z,45.10
2022-11-14T05:24:46.158Z,44.30
2022-11-14T05:25:46.141Z,47.70
2022-11-14T05:26:46.129Z,49.20
2022-11-14T05:27:46.127Z,48.10
2022-11-14T05:28:46.127Z,48.10
2022-11-14T05:29:46.109Z,48.00
2022-11-14T05:30:46.090Z,46.40
2022-11-14T05:31:46.103Z,46.50
2022-11-14T05:32:46.062Z,46.90
2022-11-14T05:33:46.080Z,46.40
2022-11-14T05:34:46.050Z,46.50
2022-11-14T05:35:46.045Z,49.20
2022-11-14T05:36:46.125Z,49.80
2022-11-14T05:37:46.023Z,46.10
2022-11-14T05:38:46.023Z,46.20
2022-11-14T05:39:46.284Z,43.50
2022-11-14T05:40:46.053Z,45.20
2022-11-14T05:41:45.993Z,46.00
2022-11-14T05:42:45.964Z,43.90
2022-11-14T05:43:45.983Z,47.30
2022-11-14T05:44:45.956Z,46.50
2022-11-14T05:45:45.944Z,45.60
2022-11-14T05:46:45.935Z,44.00
2022-11-14T05:47:45.921Z,43.90
2022-11-14T05:48:45.916Z,44.30
2022-11-14T05:49:45.928Z,44.30
2022-11-14T05:50:45.905Z,40.60
2022-11-14T05:51:45.904Z,41.70
2022-11-14T05:52:45.875Z,42.20
2022-11-14T05:53:45.886Z,42.30
2022-11-14T05:54:45.847Z,41.10
2022-11-14T05:55:45.838Z,41.40
2022-11-14T05:56:45.817Z,39.20
2022-11-14T05:57:45.820Z,38.30
2022-11-14T05:58:45.828Z,37.70
2022-11-14T05:59:45.798Z,38.10
2022-11-14T06:00:53.526Z,39.20
2022-11-14T06:01:46.840Z,40.90
2022-11-14T06:02:45.758Z,40.70
2022-11-14T06:03:45.778Z,37.70
2022-11-14T06:04:45.746Z,35.70
2022-11-14T06:05:45.738Z,39.30
2022-11-14T06:06:45.843Z,38.70
2022-11-14T06:07:45.690Z,36.10
2022-11-14T06:08:45.729Z,36.00
2022-11-14T06:09:45.702Z,36.10
2022-11-14T06:10:45.704Z,36.00
2022-11-14T06:11:45.690Z,36.50
2022-11-14T06:12:45.660Z,38.20
2022-11-14T06:13:45.689Z,37.70
2022-11-14T06:14:45.648Z,36.60
2022-11-14T06:15:45.666Z,37.50
2022-11-14T06:16:45.641Z,38.50
2022-11-14T06:17:45.643Z,39.30
2022-11-14T06:18:45.608Z,38.10
2022-11-14T06:19:45.541Z,37.70
2022-11-14T06:20:45.524Z,36.70
2022-11-14T06:21:45.523Z,36.50
2022-11-14T06:22:45.511Z,36.30
2022-11-14T06:23:45.788Z,35.70
2022-11-14T06:24:45.515Z,35.80
2022-11-14T06:25:45.491Z,34.90
2022-11-14T06:26:45.466Z,35.90
2022-11-14T06:27:45.474Z,38.60
2022-11-14T06:28:45.463Z,36.00
2022-11-14T06:29:45.455Z,40.60
2022-11-14T06:30:45.448Z,38.70
2022-11-14T06:31:45.424Z,37.30
2022-11-14T06:32:45.415Z,36.90
2022-11-14T06:33:45.415Z,35.20
2022-11-14T06:34:45.404Z,34.50
2022-11-14T06:35:45.405Z,36.40
2022-11-14T06:36:45.390Z,52.00
2022-11-14T06:37:45.379Z,55.30
2022-11-14T06:38:45.368Z,52.90
2022-11-14T06:39:45.339Z,54.60
2022-11-14T06:40:45.325Z,53.50
2022-11-14T06:41:45.317Z,49.50
2022-11-14T06:42:45.300Z,50.30
2022-11-14T06:43:45.323Z,63.40
2022-11-14T06:44:45.297Z,68.20
2022-11-14T06:45:45.292Z,63.90
2022-11-14T06:46:45.267Z,57.00
2022-11-14T06:47:45.258Z,39.80
2022-11-14T06:48:45.258Z,37.70
2022-11-14T06:49:45.240Z,38.90
2022-11-14T06:50:45.229Z,43.40
2022-11-14T06:51:45.209Z,42.20
2022-11-14T06:52:45.201Z,39.70
2022-11-14T06:53:45.227Z,44.30
2022-11-14T06:54:45.187Z,45.80
2022-11-14T06:55:45.178Z,45.10
2022-11-14T06:56:45.150Z,44.90
2022-11-14T06:57:45.162Z,47.00
2022-11-14T06:58:45.159Z,44.40
2022-11-14T06:59:45.132Z,44.00
2022-11-14T07:00:45.113Z,44.70
2022-11-14T07:01:45.111Z,43.60
2022-11-14T07:02:45.173Z,45.20
2022-11-14T07:03:45.111Z,46.80
2022-11-14T07:04:45.094Z,44.70
2022-11-14T07:05:45.191Z,43.80
2022-11-14T07:06:45.161Z,45.30
2022-11-14T07:07:45.051Z,43.50
2022-11-14T07:08:45.050Z,44.80
2022-11-14T07:09:45.032Z,44.40
2022-11-14T07:10:45.014Z,46.50
2022-11-14T07:11:45.016Z,48.50
2022-11-14T07:12:44.992Z,47.10
2022-11-14T07:13:45.012Z,46.90
2022-11-14T07:14:44.974Z,46.40
2022-11-14T07:15:44.973Z,43.30
2022-11-14T07:16:44.954Z,43.90
2022-11-14T07:17:44.952Z,46.50
2022-11-14T07:18:44.952Z,46.60
2022-11-14T07:19:44.929Z,44.20
2022-11-14T07:20:44.914Z,44.20
2022-11-14T07:21:44.916Z,46.50
2022-11-14T07:22:44.898Z,43.40
2022-11-14T07:23:44.904Z,44.90
2022-11-14T07:24:44.865Z,47.80
2022-11-14T07:25:44.875Z,46.40
2022-11-14T07:26:44.858Z,46.10
2022-11-14T07:27:44.851Z,46.00
2022-11-14T07:28:48.177Z,46.70
2022-11-14T07:29:45.824Z,46.40
2022-11-14T07:30:44.821Z,46.80
2022-11-14T07:31:44.807Z,44.70
2022-11-14T07:32:44.797Z,46.70
2022-11-14T07:33:44.887Z,46.90
2022-11-14T07:34:44.817Z,44.30
2022-11-14T07:35:44.767Z,46.50
2022-11-14T07:36:44.749Z,46.50
2022-11-14T07:37:44.749Z,48.00
2022-11-14T07:38:44.748Z,47.90
2022-11-14T07:39:44.750Z,45.20
2022-11-14T07:40:44.709Z,47.90
2022-11-14T07:41:44.709Z,45.90
2022-11-14T07:42:44.693Z,47.10
2022-11-14T07:43:44.700Z,47.50
2022-11-14T07:44:44.681Z,47.80
2022-11-14T07:45:44.667Z,45.40
2022-11-14T07:46:44.652Z,47.10
2022-11-14T07:47:44.642Z,45.90
2022-11-14T07:48:44.652Z,46.50
2022-11-14T07:49:44.628Z,48.80
2022-11-14T07:50:44.609Z,46.30
2022-11-14T07:51:44.610Z,44.60
2022-11-14T07:52:44.592Z,41.60
2022-11-14T07:53:44.601Z,44.40
2022-11-14T07:54:44.569Z,42.90
2022-11-14T07:55:44.562Z,45.30
2022-11-14T07:56:44.554Z,43.00
2022-11-14T07:57:48.989Z,41.20
2022-11-14T07:58:45.542Z,42.80
2022-11-14T07:59:44.525Z,41.70
2022-11-14T08:00:44.536Z,43.30
2022-11-14T08:01:44.511Z,42.50
2022-11-14T08:02:44.500Z,43.60
2022-11-14T08:03:46.303Z,42.50
2022-11-14T08:04:44.464Z,41.20
2022-11-14T08:05:44.461Z,41.20
2022-11-14T08:06:44.464Z,41.00
2022-11-14T08:07:44.447Z,41.70
2022-11-14T08:08:44.435Z,42.50
2022-11-14T08:09:44.425Z,40.50
2022-11-14T08:10:44.403Z,40.20
2022-11-14T08:11:44.400Z,41.70
2022-11-14T08:12:44.385Z,42.60
2022-11-14T08:13:44.399Z,42.40
2022-11-14T08:14:44.366Z,39.70
2022-11-14T08:15:44.358Z,40.90
2022-11-14T08:16:44.344Z,40.00
2022-11-14T08:17:44.342Z,38.70
2022-11-14T08:18:44.345Z,38.20
2022-11-14T08:19:44.316Z,40.00
2022-11-14T08:20:44.305Z,37.90
2022-11-14T08:21:44.298Z,37.70
2022-11-14T08:22:44.288Z,37.80
2022-11-14T08:23:44.295Z,39.00
2022-11-14T08:24:44.259Z,39.70
2022-11-14T08:25:44.261Z,38.20
2022-11-14T08:26:44.239Z,40.00
2022-11-14T08:27:44.238Z,41.20
2022-11-14T08:28:44.237Z,39.10
2022-11-14T08:29:44.217Z,36.80
2022-11-14T08:30:44.200Z,40.80
2022-11-14T08:31:44.196Z,40.80
2022-11-14T08:32:44.188Z,39.10
2022-11-14T08:33:44.192Z,38.10
2022-11-14T08:34:44.170Z,41.00
2022-11-14T08:35:44.150Z,39.90
2022-11-14T08:36:44.138Z,40.40
2022-11-14T08:37:44.133Z,41.70
2022-11-14T08:38:44.133Z,42.70
2022-11-14T08:39:44.111Z,43.70
2022-11-14T08:40:44.093Z,42.00
2022-11-14T08:41:44.095Z,42.50
2022-11-14T08:42:44.074Z,44.10
2022-11-14T08:43:44.103Z,42.70
2022-11-14T08:44:47.989Z,41.80
2022-11-14T08:45:45.063Z,40.80
2022-11-14T08:46:44.068Z,43.10
2022-11-14T08:47:44.035Z,43.50
2022-11-14T08:48:44.040Z,40.90
2022-11-14T08:49:44.012Z,40.20
2022-11-14T08:50:44.004Z,42.30
2022-11-14T08:51:43.994Z,41.70
2022-11-14T08:52:43.975Z,42.40
2022-11-14T08:53:43.985Z,40.60
2022-11-14T08:54:43.952Z,42.40
2022-11-14T08:55:43.945Z,44.50
2022-11-14T08:56:43.927Z,43.70
2022-11-14T08:57:49.063Z,41.40
2022-11-14T08:58:44.927Z,41.10
2022-11-14T08:59:43.907Z,42.50
2022-11-14T09:00:43.898Z,44.60
2022-11-14T09:01:43.966Z,42.60
2022-11-14T09:02:43.879Z,41.70
2022-11-14T09:03:44.047Z,40.90
2022-11-14T09:04:43.915Z,42.60
2022-11-14T09:05:43.838Z,45.40
2022-11-14T09:06:43.905Z,45.50
2022-11-14T09:07:43.817Z,41.50
2022-11-14T09:08:43.829Z,39.70
2022-11-14T09:09:43.798Z,42.70
2022-11-14T09:10:43.795Z,44.90
2022-11-14T09:11:43.776Z,41.80
2022-11-14T09:12:43.776Z,45.40
2022-11-14T09:13:43.777Z,47.80
2022-11-14T09:14:43.750Z,43.50
2022-11-14T09:15:43.733Z,44.80
2022-11-14T09:16:43.729Z,45.30
2022-11-14T09:17:43.711Z,41.60
2022-11-14T09:18:43.729Z,42.00
2022-11-14T09:19:43.701Z,40.90
2022-11-14T09:20:43.691Z,40.70
2022-11-14T09:21:43.672Z,40.70
2022-11-14T09:22:43.671Z,42.90
2022-11-14T09:23:43.673Z,38.80
2022-11-14T09:24:43.650Z,37.20
2022-11-14T09:25:43.633Z,35.90
2022-11-14T09:26:43.633Z,36.90
2022-11-14T09:27:43.613Z,37.30
2022-11-14T09:28:43.624Z,35.90
2022-11-14T09:29:43.603Z,38.40
2022-11-14T09:30:43.585Z,41.20
2022-11-14T09:31:43.571Z,36.80
2022-11-14T09:32:43.563Z,36.80
2022-11-14T09:33:43.572Z,37.60
2022-11-14T09:34:43.545Z,36.40
2022-11-14T09:35:43.532Z,36.40
2022-11-14T09:36:43.525Z,35.30
2022-11-14T09:37:43.507Z,36.00
2022-11-14T09:38:43.526Z,36.60
2022-11-14T09:39:43.492Z,35.20
2022-11-14T09:40:43.487Z,34.90
2022-11-14T09:41:43.473Z,34.00
2022-11-14T09:42:43.469Z,33.10
2022-11-14T09:43:43.467Z,33.80
2022-11-14T09:44:43.465Z,32.40
2022-11-14T09:45:43.448Z,32.00
2022-11-14T09:46:43.418Z,32.50
2022-11-14T09:47:43.429Z,31.90
2022-11-14T09:48:43.420Z,31.70
2022-11-14T09:49:43.386Z,33.20
2022-11-14T09:50:43.380Z,31.60
2022-11-14T09:51:43.369Z,31.20
2022-11-14T09:52:43.364Z,29.90
2022-11-14T09:53:43.365Z,29.80
2022-11-14T09:54:43.341Z,29.30
2022-11-14T09:55:43.319Z,29.50
2022-11-14T09:56:43.325Z,28.30
2022-11-14T09:57:43.300Z,28.10
2022-11-14T09:58:43.310Z,27.40
2022-11-14T09:59:43.281Z,27.40
2022-11-14T10:00:43.271Z,26.40
2022-11-14T10:01:43.301Z,25.70
2022-11-14T10:02:43.253Z,25.60
2022-11-14T10:03:43.252Z,25.00
2022-11-14T10:04:43.233Z,25.80
2022-11-14T10:05:43.215Z,26.30
2022-11-14T10:06:43.264Z,25.30
2022-11-14T10:07:43.195Z,24.00
2022-11-14T10:08:43.204Z,24.20
2022-11-14T10:09:43.175Z,23.50
2022-11-14T10:10:43.164Z,25.00
2022-11-14T10:11:43.157Z,23.80
2022-11-14T10:12:43.158Z,23.60
2022-11-14T10:13:43.156Z,23.30
2022-11-14T10:14:43.125Z,23.30
2022-11-14T10:15:43.115Z,22.60
2022-11-14T10:16:43.104Z,22.70
2022-11-14T10:17:43.103Z,23.20
2022-11-14T10:18:43.106Z,22.60
2022-11-14T10:19:43.104Z,22.80
2022-11-14T10:20:43.068Z,22.20
2022-11-14T10:21:43.050Z,22.50
2022-11-14T10:22:43.048Z,22.50
2022-11-14T10:23:43.049Z,21.20
2022-11-14T10:24:43.040Z,21.00
2022-11-14T10:25:44.394Z,21.50
2022-11-14T10:26:43.009Z,20.80
2022-11-14T10:27:42.983Z,21.10
2022-11-14T10:28:43.000Z,20.40
2022-11-14T10:29:42.961Z,20.20
2022-11-14T10:30:42.960Z,20.50
2022-11-14T10:31:42.951Z,20.20
2022-11-14T10:32:42.940Z,20.50
2022-11-14T10:33:42.964Z,19.80
2022-11-14T10:34:42.918Z,19.90
2022-11-14T10:35:42.904Z,18.40
2022-11-14T10:36:42.910Z,19.00
2022-11-14T10:37:42.901Z,18.60
2022-11-14T10:38:42.882Z,19.90
2022-11-14T10:39:42.881Z,18.90
2022-11-14T10:40:42.856Z,19.50
2022-11-14T10:41:57.072Z,17.90
2022-11-14T10:42:43.834Z,18.30
2022-11-14T10:43:42.824Z,17.70
2022-11-14T10:44:42.830Z,16.80
2022-11-14T10:45:42.796Z,18.40
2022-11-14T10:46:42.800Z,17.50
2022-11-14T10:47:42.778Z,18.30
2022-11-14T10:48:42.767Z,18.20
2022-11-14T10:49:42.776Z,18.00
2022-11-14T10:50:42.753Z,17.40
2022-11-14T10:51:42.750Z,17.60
2022-11-14T10:52:42.735Z,17.50
2022-11-14T10:53:42.739Z,18.20
2022-11-14T10:54:42.709Z,18.40
2022-11-14T10:56:03.108Z,18.10
2022-11-14T10:56:43.699Z,18.00
2022-11-14T10:57:42.686Z,17.30
2022-11-14T10:58:49.074Z,18.20
2022-11-14T10:59:43.670Z,17.30
2022-11-14T11:00:42.672Z,17.50
2022-11-14T11:01:42.629Z,18.70
2022-11-14T11:02:42.652Z,17.20
2022-11-14T11:03:42.700Z,18.30
2022-11-14T11:04:42.622Z,18.10
2022-11-14T11:05:42.593Z,18.40
2022-11-14T11:06:42.595Z,18.00
2022-11-14T11:07:42.572Z,17.20
2022-11-14T11:08:44.050Z,17.00
2022-11-14T11:09:45.886Z,16.90
2022-11-14T11:10:42.543Z,16.90
2022-11-14T11:11:42.524Z,16.30
2022-11-14T11:12:42.546Z,17.40
2022-11-14T11:13:42.504Z,17.30
2022-11-14T11:14:42.515Z,16.60
2022-11-14T11:15:42.479Z,16.00
2022-11-14T11:16:42.478Z,16.50
2022-11-14T11:17:43.220Z,16.80
2022-11-14T11:18:42.455Z,17.30
2022-11-14T11:19:42.468Z,16.70
2022-11-14T11:20:42.438Z,15.90
2022-11-14T11:21:42.541Z,15.50
2022-11-14T11:22:42.414Z,16.30
2022-11-14T11:23:42.408Z,16.10
2022-11-14T11:24:42.408Z,16.00
2022-11-14T11:25:42.376Z,16.30
2022-11-14T11:26:42.380Z,15.90
2022-11-14T11:27:42.356Z,16.70
2022-11-14T11:28:42.372Z,15.70
2022-11-14T11:29:42.360Z,14.80
2022-11-14T11:30:42.334Z,16.00
2022-11-14T11:31:42.318Z,16.10
2022-11-14T11:32:42.309Z,16.20
2022-11-14T11:33:42.290Z,16.40
2022-11-14T11:34:42.302Z,16.60
2022-11-14T11:35:42.285Z,16.50
2022-11-14T11:36:42.262Z,16.80
2022-11-14T11:37:42.255Z,14.70
2022-11-14T11:38:42.243Z,14.60
2022-11-14T11:39:42.254Z,15.50
2022-11-14T11:40:42.220Z,15.80
2022-11-14T11:42:07.542Z,15.50
2022-11-14T11:43:31.930Z,15.40
2022-11-14T11:43:43.201Z,15.50
2022-11-14T11:44:42.204Z,15.50
2022-11-14T11:45:42.170Z,14.70
2022-11-14T11:46:42.156Z,15.40
2022-11-14T11:47:42.145Z,15.50
2022-11-14T11:48:42.139Z,15.60
2022-11-14T11:49:42.139Z,15.60
2022-11-14T11:50:42.114Z,15.30
2022-11-14T11:51:42.108Z,15.10
2022-11-14T11:52:42.096Z,15.80
2022-11-14T11:53:42.078Z,15.40
2022-11-14T11:54:42.088Z,14.00
2022-11-14T11:55:42.067Z,14.30
2022-11-14T11:56:42.058Z,14.70
2022-11-14T11:57:42.035Z,15.10
2022-11-14T11:58:42.039Z,14.00
2022-11-14T11:59:42.037Z,14.20
2022-11-14T12:00:42.019Z,13.60
2022-11-14T12:01:41.996Z,13.60
2022-11-14T12:02:48.205Z,13.50
2022-11-14T12:03:43.131Z,13.10
2022-11-14T12:04:41.988Z,12.90
2022-11-14T12:05:41.954Z,13.40
2022-11-14T12:06:41.950Z,13.00
2022-11-14T12:07:41.932Z,13.40
2022-11-14T12:08:41.925Z,14.40
2022-11-14T12:10:09.294Z,13.90
2022-11-14T12:10:42.893Z,14.50
2022-11-14T12:11:41.894Z,12.80
2022-11-14T12:12:41.877Z,12.60
2022-11-14T12:13:41.865Z,13.10
2022-11-14T12:14:41.883Z,12.90
2022-11-14T12:15:41.846Z,13.20
2022-11-14T12:16:41.844Z,12.60
2022-11-14T12:17:41.823Z,12.30
2022-11-14T12:18:41.817Z,13.00
2022-11-14T12:19:41.817Z,12.70
2022-11-14T12:20:41.859Z,13.50
2022-11-14T12:21:41.788Z,13.30
2022-11-14T12:22:41.782Z,13.70
2022-11-14T12:23:41.779Z,13.00
2022-11-14T12:24:41.778Z,12.90
2022-11-14T12:25:41.738Z,13.50
2022-11-14T12:26:41.747Z,12.50
2022-11-14T12:27:41.737Z,13.80
2022-11-14T12:28:41.732Z,13.40
2022-11-14T12:29:41.712Z,12.70
2022-11-14T12:30:41.712Z,13.30
2022-11-14T12:31:41.672Z,13.70
2022-11-14T12:32:41.681Z,12.80
2022-11-14T12:33:41.652Z,12.90
2022-11-14T12:34:41.662Z,12.70
2022-11-14T12:35:41.634Z,12.20
2022-11-14T12:36:41.622Z,13.50
2022-11-14T12:37:41.688Z,13.30
2022-11-14T12:38:41.623Z,12.90
2022-11-14T12:39:41.613Z,12.90
2022-11-14T12:40:41.586Z,14.30
2022-11-14T12:41:41.586Z,13.20
2022-11-14T12:42:41.564Z,12.90
2022-11-14T12:43:41.894Z,12.80
2022-11-14T12:44:41.637Z,12.20
2022-11-14T12:45:41.531Z,12.50
2022-11-14T12:46:41.525Z,12.40
2022-11-14T12:47:41.507Z,12.60
2022-11-14T12:48:41.497Z,12.30
2022-11-14T12:49:41.507Z,12.80
2022-11-14T12:50:41.551Z,12.60
2022-11-14T12:51:41.466Z,12.60
2022-11-14T12:52:41.460Z,12.10